createdAt,value
2024-02-13T00:09:54.422Z,2.78
2024-02-13T00:12:22.393Z,2.38
2024-02-13T00:14:50.388Z,2.50
2024-02-13T00:17:18.797Z,2.92
2024-02-13T00:19:46.932Z,2.60
2024-02-13T00:22:16.227Z,3.03
2024-02-13T00:24:44.889Z,2.58
2024-02-13T00:27:14.236Z,3.00
2024-02-13T00:29:42.289Z,2.90
2024-02-13T00:32:10.297Z,2.78
2024-02-13T00:34:38.240Z,2.60
2024-02-13T00:37:06.166Z,3.00
2024-02-13T00:39:34.018Z,3.03
2024-02-13T00:42:03.953Z,2.50
2024-02-13T00:44:33.285Z,2.20
2024-02-13T00:47:01.076Z,3.05
2024-02-13T00:49:29.600Z,2.70
2024-02-13T00:51:57.870Z,3.08
2024-02-13T00:54:26.698Z,2.85
2024-02-13T00:56:54.931Z,2.92
2024-02-13T00:59:23.059Z,2.38
2024-02-13T01:01:52.756Z,2.60
2024-02-13T01:04:20.810Z,2.25
2024-02-13T01:06:48.863Z,2.80
2024-02-13T01:09:16.883Z,1.88
2024-02-13T01:11:44.852Z,2.63
2024-02-13T01:14:12.759Z,2.75
2024-02-13T01:16:41.615Z,1.92
2024-02-13T01:19:11.168Z,3.50
2024-02-13T01:21:39.397Z,2.58
2024-02-13T01:24:08.287Z,2.72
2024-02-13T01:26:36.382Z,2.40
2024-02-13T01:29:04.576Z,2.45
2024-02-13T01:31:34.192Z,2.92
2024-02-13T01:34:02.395Z,2.38
2024-02-13T01:36:31.772Z,2.50
2024-02-13T01:39:04.224Z,2.47
2024-02-13T01:41:32.236Z,2.53
2024-02-13T01:44:00.919Z,2.30
2024-02-13T01:46:32.040Z,2.97
2024-02-13T01:49:01.481Z,2.75
2024-02-13T01:51:32.879Z,2.83
2024-02-13T01:54:03.818Z,2.90
2024-02-13T01:56:35.030Z,2.70
2024-02-13T01:59:04.914Z,2.33
2024-02-13T02:01:34.392Z,2.50
2024-02-13T02:04:03.191Z,3.22
2024-02-13T02:06:32.577Z,2.47
2024-02-13T02:09:01.555Z,2.28
2024-02-13T02:11:29.581Z,2.72
2024-02-13T02:13:57.584Z,3.00
2024-02-13T02:16:25.446Z,2.92
2024-02-13T02:18:54.870Z,2.67
2024-02-13T02:21:23.034Z,2.80
2024-02-13T02:23:52.308Z,2.65
2024-02-13T02:26:21.667Z,2.80
2024-02-13T02:28:50.044Z,2.95
2024-02-13T02:31:17.951Z,2.42
2024-02-13T02:33:47.661Z,2.70
2024-02-13T02:36:15.932Z,2.90
2024-02-13T02:38:43.913Z,3.40
2024-02-13T02:41:11.919Z,3.20
2024-02-13T02:43:42.603Z,2.60
2024-02-13T02:46:12.792Z,2.33
2024-02-13T02:48:40.999Z,2.70
2024-02-13T02:51:09.642Z,2.45
2024-02-13T02:53:37.581Z,2.85
2024-02-13T02:56:06.133Z,2.58
2024-02-13T02:58:35.081Z,2.50
2024-02-13T03:01:04.644Z,3.00
2024-02-13T03:03:32.849Z,2.80
2024-02-13T03:06:01.101Z,3.28
2024-02-13T03:08:30.259Z,2.60
2024-02-13T03:10:58.191Z,2.80
2024-02-13T03:13:30.550Z,2.45
2024-02-13T03:15:58.497Z,3.60
2024-02-13T03:18:28.771Z,2.70
2024-02-13T03:20:58.190Z,3.13
2024-02-13T03:23:26.089Z,2.85
2024-02-13T03:25:54.037Z,3.65
2024-02-13T03:28:22.030Z,2.50
2024-02-13T03:30:54.501Z,3.42
2024-02-13T03:33:23.098Z,2.55
2024-02-13T03:35:52.284Z,2.90
2024-02-13T03:38:21.320Z,2.58
2024-02-13T03:40:49.246Z,2.67
2024-02-13T03:43:17.169Z,2.20
2024-02-13T03:45:44.949Z,2.92
2024-02-13T03:48:12.920Z,2.85
2024-02-13T03:50:42.900Z,2.40
2024-02-13T03:53:12.321Z,2.60
2024-02-13T03:55:40.329Z,2.10
2024-02-13T03:58:08.255Z,3.40
2024-02-13T04:00:39.169Z,2.50
2024-02-13T04:03:07.466Z,2.58
2024-02-13T04:05:38.721Z,2.17
2024-02-13T04:08:07.674Z,2.55
2024-02-13T04:10:37.122Z,2.20
2024-02-13T04:13:07.778Z,2.50
2024-02-13T04:15:37.189Z,2.28
2024-02-13T04:18:05.532Z,2.10
2024-02-13T04:20:33.397Z,2.10
2024-02-13T04:23:01.253Z,2.55
2024-02-13T04:25:29.060Z,2.30
2024-02-13T04:27:58.232Z,3.10
2024-02-13T04:30:26.470Z,2.72
2024-02-13T04:32:54.666Z,3.05
2024-02-13T04:35:23.089Z,2.30
2024-02-13T04:37:52.313Z,2.70
2024-02-13T04:40:20.590Z,2.80
2024-02-13T04:42:49.694Z,2.65
2024-02-13T04:45:19.119Z,2.97
2024-02-13T04:47:48.162Z,3.30
2024-02-13T04:50:18.748Z,3.10
2024-02-13T04:52:48.118Z,2.80
2024-02-13T04:55:15.981Z,2.38
2024-02-13T04:57:43.876Z,3.03
2024-02-13T05:00:19.686Z,2.63
2024-02-13T05:02:51.574Z,2.80
2024-02-13T05:05:37.562Z,2.33
2024-02-13T05:08:07.888Z,2.60
2024-02-13T05:10:35.798Z,2.42
2024-02-13T05:13:03.918Z,2.80
2024-02-13T05:15:31.756Z,2.00
2024-02-13T05:18:01.175Z,2.90
2024-02-13T05:20:29.179Z,2.90
2024-02-13T05:22:57.553Z,2.45
2024-02-13T05:25:26.311Z,2.53
2024-02-13T05:27:54.195Z,2.33
2024-02-13T05:30:23.503Z,2.60
2024-02-13T05:32:52.772Z,2.90
2024-02-13T05:35:22.119Z,2.72
2024-02-13T05:37:53.052Z,3.22
2024-02-13T05:40:21.367Z,2.22
2024-02-13T05:42:50.753Z,2.90
2024-02-13T05:45:18.567Z,2.45
2024-02-13T05:47:46.509Z,2.75
2024-02-13T05:50:17.643Z,3.20
2024-02-13T05:52:48.693Z,2.88
2024-02-13T05:55:17.466Z,2.97
2024-02-13T05:57:45.536Z,3.50
2024-02-13T06:00:16.124Z,6.22
2024-02-13T06:02:44.481Z,3.15
2024-02-13T06:05:12.375Z,3.40
2024-02-13T06:07:41.491Z,3.05
2024-02-13T06:10:12.669Z,2.65
2024-02-13T06:12:40.989Z,2.95
2024-02-13T06:15:10.947Z,2.63
2024-02-13T06:17:38.866Z,2.72
2024-02-13T06:20:09.398Z,3.13
2024-02-13T06:22:37.979Z,2.83
2024-02-13T06:25:10.177Z,2.50
2024-02-13T06:27:39.409Z,2.45
2024-02-13T06:30:08.616Z,2.70
2024-02-13T06:32:36.448Z,3.22
2024-02-13T06:35:04.717Z,3.05
2024-02-13T06:37:32.767Z,2.72
2024-02-13T06:40:00.677Z,3.30
2024-02-13T06:42:28.534Z,2.70
2024-02-13T06:44:57.933Z,3.45
2024-02-13T06:47:27.221Z,3.30
2024-02-13T06:49:55.216Z,3.45
2024-02-13T06:52:25.966Z,2.80
2024-02-13T06:54:53.713Z,3.97
2024-02-13T06:57:21.543Z,3.38
2024-02-13T06:59:49.726Z,3.25
2024-02-13T07:02:19.027Z,3.08
2024-02-13T07:04:47.079Z,3.33
2024-02-13T07:07:25.792Z,2.83
2024-02-13T07:10:02.027Z,3.10
2024-02-13T07:12:30.215Z,2.67
2024-02-13T07:14:58.322Z,2.33
2024-02-13T07:17:28.297Z,2.60
2024-02-13T07:19:58.608Z,2.85
2024-02-13T07:22:26.740Z,2.92
2024-02-13T07:24:54.783Z,2.83
2024-02-13T07:27:22.610Z,2.80
2024-02-13T07:29:50.571Z,3.08
2024-02-13T07:32:18.877Z,2.47
2024-02-13T07:34:48.993Z,2.72
2024-02-13T07:37:16.811Z,2.78
2024-02-13T07:39:45.302Z,3.60
2024-02-13T07:42:13.992Z,2.50
2024-02-13T07:44:42.211Z,2.58
2024-02-13T07:47:10.410Z,2.60
2024-02-13T07:49:38.984Z,2.78
2024-02-13T07:52:13.333Z,2.50
2024-02-13T07:54:41.462Z,2.67
2024-02-13T07:57:09.246Z,3.60
2024-02-13T07:59:37.155Z,3.67
2024-02-13T08:02:05.570Z,3.10
2024-02-13T08:04:36.821Z,3.08
2024-02-13T08:07:05.282Z,2.47
2024-02-13T08:09:35.434Z,2.75
2024-02-13T08:12:05.084Z,3.40
2024-02-13T08:14:33.999Z,3.38
2024-02-13T08:17:02.093Z,2.92
2024-02-13T08:19:30.200Z,2.88
2024-02-13T08:21:58.091Z,2.88
2024-02-13T08:24:25.841Z,2.70
2024-02-13T08:26:56.703Z,3.60
2024-02-13T08:29:24.682Z,3.03
2024-02-13T08:31:53.540Z,2.88
2024-02-13T08:34:23.117Z,2.95
2024-02-13T08:36:51.224Z,2.42
2024-02-13T08:39:19.076Z,3.10
2024-02-13T08:41:47.169Z,2.70
2024-02-13T08:44:17.809Z,2.17
2024-02-13T08:46:46.003Z,2.43
2024-02-13T08:49:14.912Z,1.70
2024-02-13T08:51:43.227Z,1.70
2024-02-13T08:54:12.991Z,2.13
2024-02-13T08:56:41.208Z,1.90
2024-02-13T08:59:11.407Z,1.90
2024-02-13T09:01:41.877Z,2.50
2024-02-13T09:04:10.052Z,2.00
2024-02-13T09:06:38.108Z,1.80
2024-02-13T09:09:06.247Z,2.10
2024-02-13T09:11:34.752Z,1.67
2024-02-13T09:14:02.744Z,1.80
2024-02-13T09:16:31.398Z,1.97
2024-02-13T09:19:01.131Z,2.27
2024-02-13T09:21:30.325Z,2.13
2024-02-13T09:23:58.892Z,2.00
2024-02-13T09:26:26.844Z,1.90
2024-02-13T09:28:55.062Z,2.20
2024-02-13T09:31:22.874Z,2.03
2024-02-13T09:33:51.050Z,2.10
2024-02-13T09:36:21.871Z,1.57
2024-02-13T09:38:49.862Z,1.70
2024-02-13T09:41:18.543Z,1.80
2024-02-13T09:43:50.314Z,1.80
2024-02-13T09:46:21.092Z,2.07
2024-02-13T09:48:50.848Z,1.67
2024-02-13T09:51:21.384Z,1.80
2024-02-13T09:53:50.883Z,1.87
2024-02-13T09:56:20.062Z,1.77
2024-02-13T09:58:50.025Z,1.63
2024-02-13T10:01:18.169Z,2.30
2024-02-13T10:03:46.571Z,2.23
2024-02-13T10:06:15.345Z,2.37
2024-02-13T10:08:51.169Z,2.53
2024-02-13T10:11:19.437Z,3.77
2024-02-13T10:13:48.604Z,2.40
2024-02-13T10:16:25.358Z,3.00
2024-02-13T10:18:54.716Z,2.37
2024-02-13T10:21:25.986Z,2.73
2024-02-13T10:24:07.617Z,2.63
2024-02-13T10:26:37.692Z,2.30
2024-02-13T10:29:05.623Z,1.90
2024-02-13T10:31:36.490Z,2.00
2024-02-13T10:34:06.069Z,1.80
2024-02-13T10:36:35.659Z,1.83
2024-02-13T10:39:10.006Z,1.90
2024-02-13T10:41:41.476Z,2.00
2024-02-13T10:44:10.780Z,1.50
2024-02-13T10:46:40.888Z,1.67
2024-02-13T10:49:22.261Z,1.70
2024-02-13T10:51:50.799Z,2.20
2024-02-13T10:54:21.378Z,1.73
2024-02-13T10:56:51.323Z,2.00
2024-02-13T10:59:23.726Z,2.00
2024-02-13T11:01:55.870Z,2.20
2024-02-13T11:04:24.373Z,1.77
2024-02-13T11:06:52.420Z,1.60
2024-02-13T11:09:21.796Z,2.00
2024-02-13T11:11:49.896Z,1.70
2024-02-13T11:14:20.000Z,1.90
2024-02-13T11:16:58.224Z,1.60
2024-02-13T11:19:26.635Z,1.60
2024-02-13T11:21:57.315Z,2.37
2024-02-13T11:24:26.464Z,1.60
2024-02-13T11:26:54.356Z,2.13
2024-02-13T11:29:24.529Z,1.70
2024-02-13T11:31:56.742Z,1.53
2024-02-13T11:34:40.079Z,1.67
2024-02-13T11:37:17.887Z,1.93
2024-02-13T11:39:48.407Z,1.40
2024-02-13T11:42:20.660Z,1.63
2024-02-13T11:47:20.206Z,1.70
2024-02-13T11:49:50.474Z,1.60
2024-02-13T11:52:18.630Z,1.30
2024-02-13T11:54:48.532Z,1.47
2024-02-13T11:57:17.590Z,1.90
2024-02-13T11:59:46.134Z,2.00
2024-02-13T12:02:15.296Z,1.87
2024-02-13T12:04:44.510Z,2.50
2024-02-13T12:07:13.367Z,2.30
2024-02-13T12:09:42.270Z,1.70
2024-02-13T12:12:13.989Z,1.70
2024-02-13T12:14:45.355Z,1.60
2024-02-13T12:17:14.180Z,1.57
2024-02-13T12:19:43.171Z,1.40
2024-02-13T12:22:11.995Z,1.60
2024-02-13T12:24:42.800Z,1.17
2024-02-13T12:27:13.861Z,1.42
2024-02-13T12:29:42.631Z,1.33
2024-02-13T12:32:18.266Z,1.30
2024-02-13T12:34:49.411Z,1.40
2024-02-13T12:37:17.996Z,1.33
2024-02-13T12:39:47.258Z,1.40
2024-02-13T12:42:18.737Z,1.43
2024-02-13T12:44:49.347Z,1.53
2024-02-13T12:47:19.185Z,1.30
2024-02-13T12:49:48.655Z,1.27
2024-02-13T12:52:18.905Z,1.40
2024-02-13T12:54:47.768Z,1.30
2024-02-13T12:57:18.361Z,1.80
2024-02-13T12:59:46.300Z,1.23
2024-02-13T13:02:15.645Z,1.10
2024-02-13T13:04:43.524Z,1.00
2024-02-13T13:07:12.544Z,1.63
2024-02-13T13:09:43.527Z,1.37
2024-02-13T13:12:13.917Z,1.40
2024-02-13T13:14:45.802Z,1.30
2024-02-13T13:17:14.129Z,1.20
2024-02-13T13:19:43.908Z,1.60
2024-02-13T13:22:15.978Z,1.23
2024-02-13T13:24:43.858Z,1.10
2024-02-13T13:27:13.063Z,1.53
2024-02-13T13:29:41.433Z,1.13
2024-02-13T13:32:11.166Z,1.30
2024-02-13T13:34:39.361Z,1.33
2024-02-13T13:37:08.536Z,1.70
2024-02-13T13:39:37.644Z,1.43
2024-02-13T13:42:10.988Z,1.17
2024-02-13T13:44:40.069Z,1.10
2024-02-13T13:47:09.226Z,1.30
2024-02-13T13:49:39.646Z,1.27
2024-02-13T13:52:08.231Z,1.57
2024-02-13T13:54:36.696Z,1.03
2024-02-13T13:57:10.521Z,1.10
2024-02-13T13:59:50.347Z,1.20
2024-02-13T14:02:19.867Z,1.00
2024-02-13T14:04:51.561Z,0.97
2024-02-13T14:07:22.114Z,1.37
2024-02-13T14:09:50.391Z,1.03
2024-02-13T14:12:49.156Z,0.80
2024-02-13T14:15:22.715Z,1.10
2024-02-13T14:17:52.004Z,0.90
2024-02-13T14:20:21.972Z,1.13
2024-02-13T14:22:54.782Z,1.00
2024-02-13T14:25:23.962Z,1.40
2024-02-13T14:27:52.573Z,0.80
2024-02-13T14:30:20.943Z,1.10
2024-02-13T14:32:49.631Z,1.30
2024-02-13T14:35:19.171Z,1.20
2024-02-13T14:37:52.528Z,1.10
2024-02-13T14:40:22.263Z,1.10
2024-02-13T14:42:50.219Z,1.10
2024-02-13T14:45:18.518Z,1.10
2024-02-13T14:47:47.068Z,1.30
2024-02-13T14:50:15.975Z,1.57
2024-02-13T14:52:45.801Z,1.27
2024-02-13T14:55:15.028Z,1.80
2024-02-13T14:57:51.161Z,1.50
2024-02-13T15:00:29.288Z,1.70
2024-02-13T15:03:01.276Z,2.23
2024-02-13T15:05:31.799Z,1.83
2024-02-13T15:07:59.691Z,1.37
2024-02-13T15:10:30.116Z,1.70
2024-02-13T15:13:00.420Z,1.30
2024-02-13T15:15:32.880Z,1.70
2024-02-13T15:18:01.608Z,1.30
2024-02-13T15:20:29.663Z,1.20
2024-02-13T15:22:57.972Z,1.20
2024-02-13T15:25:26.063Z,1.10
2024-02-13T15:27:55.622Z,1.70
2024-02-13T15:30:24.069Z,1.50
2024-02-13T15:32:54.417Z,1.37
2024-02-13T15:38:31.953Z,1.30
2024-02-13T15:41:17.915Z,1.57
2024-02-13T15:44:05.061Z,1.70
2024-02-13T15:46:50.734Z,1.20
2024-02-13T15:49:20.736Z,1.70
2024-02-13T15:51:53.674Z,1.50
2024-02-13T15:54:25.027Z,1.13
2024-02-13T15:56:56.729Z,1.60
2024-02-13T15:59:27.328Z,1.30
2024-02-13T16:01:57.349Z,1.40
2024-02-13T16:04:29.142Z,1.40
2024-02-13T16:07:00.594Z,1.20
2024-02-13T16:09:29.236Z,1.53
2024-02-13T16:11:58.082Z,1.57
2024-02-13T16:14:28.653Z,1.60
2024-02-13T16:16:58.701Z,1.23
2024-02-13T16:19:31.203Z,1.40
2024-02-13T16:22:01.099Z,1.67
2024-02-13T16:24:29.647Z,1.60
2024-02-13T16:27:01.611Z,1.50
2024-02-13T16:29:31.563Z,1.48
2024-02-13T16:32:00.729Z,1.33
2024-02-13T16:34:30.799Z,1.48
2024-02-13T16:37:00.780Z,1.33
2024-02-13T16:39:38.650Z,1.92
2024-02-13T16:42:18.286Z,2.08
2024-02-13T16:45:33.021Z,2.50
2024-02-13T16:48:16.060Z,2.05
2024-02-13T16:51:01.037Z,2.17
2024-02-13T16:53:38.735Z,2.25
2024-02-13T16:56:09.979Z,1.60
2024-02-13T16:58:41.930Z,2.20
2024-02-13T17:01:14.929Z,2.78
2024-02-13T17:03:48.433Z,2.10
2024-02-13T17:06:17.826Z,2.15
2024-02-13T17:08:49.065Z,2.30
2024-02-13T17:11:18.894Z,1.90
2024-02-13T17:13:47.617Z,2.17
2024-02-13T17:16:18.520Z,2.20
2024-02-13T17:18:57.736Z,1.95
2024-02-13T17:21:26.645Z,2.67
2024-02-13T17:23:55.394Z,2.00
2024-02-13T17:26:27.490Z,2.42
2024-02-13T17:28:56.995Z,1.88
2024-02-13T17:31:27.862Z,1.90
2024-02-13T17:33:59.004Z,2.10
2024-02-13T17:36:28.276Z,3.35
2024-02-13T17:38:56.734Z,2.95
2024-02-13T17:41:29.172Z,2.60
2024-02-13T17:44:00.779Z,2.47
2024-02-13T17:46:32.384Z,2.05
2024-02-13T17:49:01.293Z,2.30
2024-02-13T17:51:31.499Z,2.13
2024-02-13T17:54:10.210Z,2.63
2024-02-13T17:56:38.920Z,2.35
2024-02-13T17:59:07.772Z,2.35
2024-02-13T18:01:38.214Z,2.20
2024-02-13T18:04:06.521Z,2.17
2024-02-13T18:06:34.728Z,3.10
2024-02-13T18:09:04.047Z,1.83
2024-02-13T18:11:31.908Z,2.58
2024-02-13T18:13:59.751Z,2.40
2024-02-13T18:16:27.687Z,3.42
2024-02-13T18:18:57.397Z,3.25
2024-02-13T18:21:25.458Z,3.15
2024-02-13T18:23:55.588Z,6.85
2024-02-13T18:26:24.435Z,4.43
2024-02-13T18:28:52.506Z,3.42
2024-02-13T18:31:20.726Z,3.45
2024-02-13T18:33:48.947Z,3.95
2024-02-13T18:36:18.238Z,3.75
2024-02-13T18:38:46.693Z,3.17
2024-02-13T18:41:14.490Z,3.15
2024-02-13T18:43:42.306Z,3.95
2024-02-13T18:46:12.022Z,3.47
2024-02-13T18:48:42.600Z,3.75
2024-02-13T18:51:10.878Z,3.70
2024-02-13T18:53:41.031Z,3.90
2024-02-13T18:56:08.960Z,5.47
2024-02-13T18:58:39.991Z,5.38
2024-02-13T19:01:10.933Z,4.53
2024-02-13T19:03:38.990Z,4.65
2024-02-13T19:06:08.860Z,4.70
2024-02-13T19:08:37.188Z,4.90
2024-02-13T19:11:06.734Z,3.90
2024-02-13T19:13:34.638Z,3.67
2024-02-13T19:16:02.867Z,4.28
2024-02-13T19:18:30.836Z,4.38
2024-02-13T19:20:59.179Z,4.40
2024-02-13T19:23:27.273Z,4.10
2024-02-13T19:25:55.199Z,4.80
2024-02-13T19:28:27.032Z,5.63
2024-02-13T19:30:55.069Z,4.40
2024-02-13T19:33:23.181Z,5.20
2024-02-13T19:35:53.933Z,4.57
2024-02-13T19:38:22.116Z,5.10
2024-02-13T19:40:51.366Z,4.32
2024-02-13T19:43:21.854Z,5.60
2024-02-13T19:45:51.808Z,4.93
2024-02-13T19:48:20.806Z,5.00
2024-02-13T19:50:51.529Z,7.95
2024-02-13T19:53:19.869Z,8.80
2024-02-13T19:55:48.617Z,6.00
2024-02-13T19:58:17.585Z,4.68
2024-02-13T20:00:46.288Z,7.00
2024-02-13T20:03:16.197Z,6.78
2024-02-13T20:05:44.607Z,9.50
2024-02-13T20:08:12.518Z,5.78
2024-02-13T20:10:40.540Z,5.25
2024-02-13T20:13:08.530Z,7.40
2024-02-13T20:15:36.800Z,9.10
2024-02-13T20:18:06.178Z,8.52
2024-02-13T20:20:35.516Z,9.30
2024-02-13T20:23:03.579Z,9.52
2024-02-13T20:25:31.362Z,9.07
2024-02-13T20:27:59.976Z,6.60
2024-02-13T20:30:29.786Z,7.10
2024-02-13T20:32:58.227Z,7.28
2024-02-13T20:35:26.517Z,10.68
2024-02-13T20:37:55.741Z,6.80
2024-02-13T20:40:23.845Z,7.10
2024-02-13T20:42:51.731Z,6.53
2024-02-13T20:45:23.531Z,8.02
2024-02-13T20:47:53.232Z,5.68
2024-02-13T20:50:22.096Z,6.00
2024-02-13T20:52:50.123Z,6.00
2024-02-13T20:55:20.600Z,5.80
2024-02-13T20:57:49.382Z,5.55
2024-02-13T21:00:18.482Z,5.78
2024-02-13T21:02:47.000Z,8.07
2024-02-13T21:05:15.457Z,6.72
2024-02-13T21:07:43.777Z,8.10
2024-02-13T21:10:12.268Z,6.20
2024-02-13T21:12:42.144Z,6.40
2024-02-13T21:15:13.271Z,6.75
2024-02-13T21:17:42.525Z,5.90
2024-02-13T21:20:12.571Z,6.55
2024-02-13T21:22:58.375Z,6.20
2024-02-13T21:25:26.934Z,7.43
2024-02-13T21:27:56.298Z,6.97
2024-02-13T21:30:24.118Z,6.63
2024-02-13T21:32:52.260Z,7.05
2024-02-13T21:35:22.594Z,6.47
2024-02-13T21:37:50.581Z,6.35
2024-02-13T21:40:18.614Z,6.60
2024-02-13T21:42:47.850Z,6.50
2024-02-13T21:45:17.223Z,6.70
2024-02-13T21:47:46.461Z,7.07
2024-02-13T21:50:16.188Z,7.80
2024-02-13T21:52:44.112Z,6.30
2024-02-13T21:55:11.899Z,7.47
2024-02-13T21:57:39.828Z,7.57
2024-02-13T22:00:10.444Z,7.07
2024-02-13T22:02:39.927Z,7.15
2024-02-13T22:05:08.112Z,5.95
2024-02-13T22:07:38.776Z,6.80
2024-02-13T22:10:09.016Z,6.72
2024-02-13T22:12:36.827Z,6.93
2024-02-13T22:15:05.513Z,7.32
2024-02-13T22:17:34.064Z,7.22
2024-02-13T22:20:03.437Z,6.75
2024-02-13T22:22:31.216Z,7.75
2024-02-13T22:24:59.030Z,6.88
2024-02-13T22:27:29.265Z,7.15
2024-02-13T22:29:57.587Z,7.45
2024-02-13T22:32:25.995Z,6.65
2024-02-13T22:34:57.894Z,6.15
2024-02-13T22:37:27.794Z,7.35
2024-02-13T22:39:55.573Z,6.30
2024-02-13T22:42:23.466Z,6.55
2024-02-13T22:44:51.570Z,6.70
2024-02-13T22:47:19.536Z,6.78
2024-02-13T22:49:47.640Z,6.95
2024-02-13T22:52:15.664Z,7.00
2024-02-13T22:54:44.963Z,6.72
2024-02-13T22:57:14.154Z,6.80
2024-02-13T22:59:42.074Z,6.15
2024-02-13T23:02:10.774Z,6.90
2024-02-13T23:04:39.890Z,6.80
2024-02-13T23:07:07.913Z,6.45
2024-02-13T23:09:35.761Z,7.13
2024-02-13T23:12:05.896Z,7.35
2024-02-13T23:14:37.949Z,7.13
2024-02-13T23:17:07.115Z,6.55
2024-02-13T23:19:35.537Z,7.22
2024-02-13T23:22:04.279Z,7.50
2024-02-13T23:24:33.301Z,7.10
2024-02-13T23:27:01.740Z,7.10
2024-02-13T23:29:31.602Z,6.10
2024-02-13T23:32:00.124Z,6.57
2024-02-13T23:34:27.938Z,6.93
2024-02-13T23:36:55.701Z,5.78
2024-02-13T23:39:23.583Z,5.88
2024-02-13T23:41:51.463Z,5.43
2024-02-13T23:44:23.154Z,6.20
2024-02-13T23:46:52.589Z,5.25
2024-02-13T23:49:20.428Z,6.45
2024-02-13T23:51:48.254Z,5.63
2024-02-13T23:54:18.459Z,5.13
2024-02-13T23:56:46.395Z,4.90
2024-02-13T23:59:14.364Z,5.60
